Time;durP1;ratioP1;P1;durP2;ratioP2;P2;SDS_P1;SDS_P2;PMS_P1;PMS_P2;Temp;Humidity;BMP_temperature;BMP_pressure;BME280_temperature;BME280_humidity;BME280_pressure;Samples;Min_cycle;Max_cycle;Signal;HPM_P1;HPM_P2
2021/09/25 00:06:01;;;;;;;4.80;2.60;;;;;;;11.67;100.00;100048.63;21095862;27;20229;-60
2021/09/25 00:16:07;;;;;;;6.73;3.00;;;;;;;11.84;100.00;100053.59;21140018;27;20297;-61
2021/09/25 00:26:09;;;;;;;7.00;3.17;;;;;;;12.01;100.00;100055.03;21136945;27;20237;-63
2021/09/25 00:36:13;;;;;;;5.43;2.90;;;;;;;12.09;100.00;100040.09;21137258;27;20629;-62
2021/09/25 00:46:15;;;;;;;6.33;3.20;;;;;;;12.19;100.00;100040.28;21082155;27;20250;-60
2021/09/25 00:56:19;;;;;;;4.70;2.87;;;;;;;12.32;100.00;100038.38;21042193;28;20246;-67
2021/09/25 01:06:22;;;;;;;7.83;3.00;;;;;;;12.47;100.00;100022.97;20996515;28;20273;-61
2021/09/25 01:16:25;;;;;;;4.80;2.80;;;;;;;12.59;100.00;100030.91;20995744;28;20307;-65
2021/09/25 01:26:29;;;;;;;5.17;2.57;;;;;;;12.81;100.00;100026.56;21075963;28;20312;-61
2021/09/25 01:36:31;;;;;;;2.93;2.23;;;;;;;13.04;100.00;100022.94;21021416;28;20592;-61
2021/09/25 01:46:35;;;;;;;4.27;2.90;;;;;;;13.21;100.00;100030.53;20993110;28;20227;-61
2021/09/25 01:56:39;;;;;;;4.30;2.73;;;;;;;13.34;100.00;100020.53;20991372;28;20226;-61
2021/09/25 02:06:42;;;;;;;3.17;2.40;;;;;;;13.54;100.00;100020.72;20991327;28;20229;-62
2021/09/25 02:16:45;;;;;;;4.17;3.07;;;;;;;13.67;100.00;100022.28;20990784;28;20681;-61
2021/09/25 02:36:46;;;;;;;2.70;2.40;;;;;;;13.84;100.00;100018.22;21146259;27;21082;-61
2021/09/25 02:46:48;;;;;;;2.90;2.37;;;;;;;13.92;100.00;100015.75;21140570;28;20696;-60
2021/09/25 02:56:52;;;;;;;2.73;2.53;;;;;;;14.00;100.00;100007.09;21095821;28;20638;-60
2021/09/25 03:06:54;;;;;;;3.03;2.60;;;;;;;14.09;100.00;100006.31;21098890;28;20234;-61
2021/09/25 03:16:58;;;;;;;4.60;3.00;;;;;;;14.12;100.00;100006.06;21189038;27;20615;-61
2021/09/25 03:36:58;;;;;;;3.70;3.30;;;;;;;14.25;100.00;100016.63;21229019;27;20944;-60
2021/09/25 03:47:00;;;;;;;4.90;3.37;;;;;;;14.30;100.00;100025.13;21227292;28;20242;-61
2021/09/25 03:57:04;;;;;;;5.23;3.93;;;;;;;14.36;100.00;100038.03;21225922;28;20226;-62
2021/09/25 04:07:06;;;;;;;4.10;3.80;;;;;;;14.44;100.00;100032.03;21177812;28;20225;-61
2021/09/25 04:17:10;;;;;;;4.23;3.93;;;;;;;14.49;100.00;100036.03;21140068;28;20225;-62
2021/09/25 04:27:12;;;;;;;5.17;4.40;;;;;;;14.51;100.00;100039.44;21139317;28;20233;-61
2021/09/25 04:37:16;;;;;;;5.07;4.60;;;;;;;14.59;100.00;100030.75;21138244;28;20218;-63
2021/09/25 04:47:18;;;;;;;4.90;4.50;;;;;;;14.67;100.00;100044.34;21075499;28;20797;-62
2021/09/25 04:57:21;;;;;;;5.30;4.83;;;;;;;14.77;100.00;100051.50;21049733;28;20333;-61
2021/09/25 05:17:23;;;;;;;4.57;4.17;;;;;;;15.12;100.00;100064.56;21070784;27;20637;-61
2021/09/25 05:27:25;;;;;;;4.80;4.30;;;;;;;15.35;100.00;100072.44;21058114;27;20309;-60
2021/09/25 05:37:29;;;;;;;5.17;4.77;;;;;;;15.58;100.00;100067.78;21052078;27;20723;-63
2021/09/25 05:47:31;;;;;;;5.03;4.57;;;;;;;15.70;100.00;100069.34;21020390;27;20249;-69
2021/09/25 05:57:35;;;;;;;5.50;5.00;;;;;;;15.68;100.00;100072.19;21019642;27;20284;-59
2021/09/25 06:07:37;;;;;;;6.40;5.83;;;;;;;15.74;100.00;100077.00;21053888;27;20309;-59
2021/09/25 06:27:41;;;;;;;6.33;5.73;;;;;;;16.17;100.00;100095.53;20877561;27;20592;-66
2021/09/25 06:37:44;;;;;;;7.10;6.27;;;;;;;16.63;100.00;100102.09;20817268;28;20261;-60
2021/09/25 06:57:46;;;;;;;8.80;6.40;;;;;;;16.92;100.00;100110.13;20843690;27;21276;-65
2021/09/25 07:17:45;;;;;;;8.13;7.33;;;;;;;16.79;100.00;100121.22;20898404;27;1344277;-67
2021/09/25 07:27:50;;;;;;;8.27;7.47;;;;;;;17.07;100.00;100124.03;20943773;28;20224;-67
2021/09/25 07:37:54;;;;;;;7.50;6.90;;;;;;;17.50;100.00;100127.03;20924341;28;20455;-66
2021/09/25 07:47:57;;;;;;;7.93;7.13;;;;;;;17.60;100.00;100130.56;20917275;28;20260;-65
2021/09/25 07:58:01;;;;;;;8.23;7.43;;;;;;;17.51;100.00;100138.69;20917423;28;20319;-63
2021/09/25 08:08:03;;;;;;;10.53;9.57;;;;;;;17.34;100.00;100153.78;20925305;28;20548;-66
2021/09/25 08:18:07;;;;;;;12.03;10.80;;;;;;;16.88;100.00;100160.81;21006188;28;20231;-58
2021/09/25 08:28:10;;;;;;;13.00;10.23;;;;;;;16.82;100.00;100177.53;21055776;28;20283;-73
2021/09/25 08:38:13;;;;;;;10.17;9.37;;;;;;;16.88;100.00;100195.00;21163354;28;20272;-73
2021/09/25 08:48:17;;;;;;;10.00;9.13;;;;;;;16.98;100.00;100184.19;21159310;28;20221;-66
2021/09/25 08:58:21;;;;;;;10.40;9.47;;;;;;;17.16;100.00;100182.47;21132290;28;20656;-64
2021/09/25 09:08:24;;;;;;;8.67;7.97;;;;;;;17.73;100.00;100192.31;21159319;28;20233;-72
2021/09/25 09:18:30;;;;;;;8.43;7.73;;;;;;;18.15;100.00;100183.75;21160885;28;20312;-59
2021/09/25 09:28:34;;;;;;;9.23;8.37;;;;;;;18.98;100.00;100202.41;21160300;28;20232;-59
2021/09/25 09:38:40;;;;;;;8.47;7.77;;;;;;;19.43;100.00;100193.31;21157341;28;20224;-58
2021/09/25 09:48:42;;;;;;;8.97;8.27;;;;;;;18.85;100.00;100187.56;21157231;28;20643;-58
2021/09/25 09:58:46;;;;;;;9.17;8.40;;;;;;;18.47;100.00;100202.19;21140064;28;20315;-58
2021/09/25 10:08:48;;;;;;;9.63;8.83;;;;;;;18.35;100.00;100193.47;21157106;28;20239;-58
2021/09/25 10:18:53;;;;;;;9.30;8.50;;;;;;;18.39;100.00;100211.03;21113070;28;20227;-61
2021/09/25 10:28:58;;;;;;;8.03;7.43;;;;;;;18.96;100.00;100214.38;21043467;28;20323;-57
2021/09/25 10:39:16;;;;;;;8.60;7.80;;;;;;;19.41;100.00;100203.44;21049915;28;20237;-56
2021/09/25 10:49:18;;;;;;;8.00;7.30;;;;;;;19.28;100.00;100221.94;21045861;28;20998;-59
2021/09/25 10:59:22;;;;;;;7.33;6.73;;;;;;;19.33;100.00;100214.19;21045265;28;20605;-56
2021/09/25 11:09:30;;;;;;;6.40;5.87;;;;;;;19.58;100.00;100245.88;21043900;28;20217;-58
2021/09/25 11:19:46;;;;;;;7.80;6.80;;;;;;;19.34;100.00;100215.88;21037428;28;20230;-67
2021/09/25 11:29:54;;;;;;;5.60;5.20;;;;;;;19.40;100.00;100229.66;21020697;28;20228;-60
2021/09/25 11:39:59;;;;;;;5.13;4.63;;;;;;;20.08;100.00;100212.66;21043694;28;20794;-57
2021/09/25 11:50:13;;;;;;;5.60;5.10;;;;;;;20.10;100.00;100244.00;21042982;28;20324;-57
2021/09/25 12:00:23;;;;;;;5.97;5.47;;;;;;;19.91;100.00;100219.03;21049783;28;20333;-57
2021/09/25 12:10:29;;;;;;;5.97;5.47;;;;;;;19.24;100.00;100234.06;21055044;28;20865;-58
2021/09/25 12:20:32;;;;;;;6.23;5.73;;;;;;;19.16;100.00;100258.34;21055531;28;20252;-58
2021/09/25 12:30:46;;;;;;;7.27;6.70;;;;;;;18.75;100.00;100271.44;21033568;28;20648;-57
2021/09/25 12:40:51;;;;;;;6.60;6.10;;;;;;;18.90;100.00;100291.56;21052108;28;20317;-57
2021/09/25 12:50:55;;;;;;;6.00;5.47;;;;;;;19.12;100.00;100294.81;21055360;28;20222;-57
2021/09/25 13:01:00;;;;;;;5.57;5.17;;;;;;;18.99;100.00;100295.19;21052175;28;20621;-58
2021/09/25 13:11:12;;;;;;;6.03;5.53;;;;;;;19.15;100.00;100300.78;21051279;28;20836;-59
2021/09/25 13:21:16;;;;;;;6.67;5.30;;;;;;;18.95;100.00;100299.22;21050922;28;20229;-58
2021/09/25 13:31:18;;;;;;;5.87;5.33;;;;;;;18.75;100.00;100295.78;21033762;28;20300;-64
2021/09/25 13:41:26;;;;;;;5.33;4.93;;;;;;;18.90;100.00;100324.00;21053493;28;21038;-58
2021/09/25 13:51:28;;;;;;;5.77;5.27;;;;;;;19.21;100.00;100332.63;21045835;28;20247;-60
2021/09/25 14:01:32;;;;;;;4.97;4.57;;;;;;;19.19;100.00;100345.47;21049000;28;21449;-57
2021/09/25 14:11:35;;;;;;;4.77;4.37;;;;;;;19.03;100.00;100346.13;21045449;28;20256;-57
2021/09/25 14:21:39;;;;;;;5.07;4.67;;;;;;;19.25;100.00;100354.81;21045385;28;20229;-57
2021/09/25 14:31:43;;;;;;;5.27;4.73;;;;;;;18.99;100.00;100358.25;21046586;28;20229;-59
2021/09/25 14:41:47;;;;;;;5.03;4.63;;;;;;;18.72;100.00;100368.25;21039568;28;20257;-59
2021/09/25 14:51:51;;;;;;;4.80;4.50;;;;;;;18.48;100.00;100374.13;21043603;28;20231;-60
2021/09/25 15:01:55;;;;;;;5.13;4.73;;;;;;;18.30;100.00;100383.00;21044978;28;20229;-70
2021/09/25 15:11:59;;;;;;;6.40;5.80;;;;;;;18.17;100.00;100393.28;21043940;28;20227;-58
2021/09/25 15:22:03;;;;;;;5.60;5.20;;;;;;;18.07;100.00;100405.94;21041505;28;20563;-57
2021/09/25 15:32:09;;;;;;;9.80;8.87;;;;;;;17.95;100.00;100416.06;21044292;28;20298;-57
2021/09/25 15:42:14;;;;;;;7.87;7.17;;;;;;;17.84;100.00;100421.59;21059939;28;20352;-58
2021/09/25 15:52:16;;;;;;;7.00;6.40;;;;;;;17.77;100.00;100433.09;21054660;28;20636;-58
2021/09/25 16:02:21;;;;;;;6.13;5.60;;;;;;;17.63;100.00;100446.00;21046801;28;20732;-58
2021/09/25 16:12:24;;;;;;;5.53;5.03;;;;;;;17.54;100.00;100460.31;21054419;28;20237;-60
2021/09/25 16:22:27;;;;;;;7.30;5.87;;;;;;;17.43;100.00;100460.44;21035200;28;20278;-58
2021/09/25 16:32:30;;;;;;;5.70;5.23;;;;;;;17.36;100.00;100462.00;21029709;28;20226;-58
2021/09/25 16:42:33;;;;;;;6.87;6.27;;;;;;;17.30;100.00;100481.44;21051997;28;20229;-60
2021/09/25 16:52:36;;;;;;;7.97;7.27;;;;;;;17.20;100.00;100492.19;21043150;28;20229;-57
2021/09/25 17:02:40;;;;;;;7.20;6.50;;;;;;;17.12;100.00;100499.25;21049859;28;20290;-60
2021/09/25 17:12:42;;;;;;;6.87;6.17;;;;;;;17.01;100.00;100507.44;21052868;28;20727;-58
2021/09/25 17:22:47;;;;;;;8.00;7.10;;;;;;;16.84;100.00;100522.38;21027542;28;20230;-63
2021/09/25 17:32:50;;;;;;;5.80;5.30;;;;;;;16.71;100.00;100530.69;21045030;28;20822;-60
2021/09/25 17:42:55;;;;;;;5.50;5.00;;;;;;;16.65;100.00;100538.47;21046455;28;20706;-58
2021/09/25 17:52:59;;;;;;;7.43;6.73;;;;;;;16.68;100.00;100544.41;21047786;28;20833;-73
2021/09/25 18:03:03;;;;;;;8.67;7.77;;;;;;;16.68;100.00;100549.81;21049557;28;20232;-58
2021/09/25 18:13:06;;;;;;;10.47;9.37;;;;;;;16.65;100.00;100550.09;21042261;28;20978;-57
2021/09/25 18:23:11;;;;;;;12.97;11.67;;;;;;;16.59;100.00;100553.25;21037761;28;21425;-59
2021/09/25 18:33:14;;;;;;;9.80;8.93;;;;;;;16.51;100.00;100563.84;21041750;28;20403;-59
2021/09/25 18:43:18;;;;;;;7.63;6.97;;;;;;;16.43;100.00;100577.94;21022306;28;20336;-58
2021/09/25 18:53:21;;;;;;;7.67;7.07;;;;;;;16.27;100.00;100588.34;21019903;28;20736;-59
2021/09/25 19:03:25;;;;;;;7.77;7.03;;;;;;;16.18;100.00;100600.69;21039835;28;20286;-59
2021/09/25 19:13:32;;;;;;;7.53;6.87;;;;;;;16.08;100.00;100604.28;21040215;28;20322;-60
2021/09/25 19:23:39;;;;;;;6.40;5.90;;;;;;;15.89;100.00;100613.03;21042494;28;20217;-61
2021/09/25 19:33:41;;;;;;;7.13;6.53;;;;;;;15.72;100.00;100627.00;21042038;28;20310;-59
2021/09/25 19:43:46;;;;;;;7.20;6.70;;;;;;;15.76;100.00;100631.16;21019122;28;21739;-63
2021/09/25 19:53:49;;;;;;;7.03;6.53;;;;;;;15.69;100.00;100629.94;21038044;28;20226;-60
2021/09/25 20:03:53;;;;;;;6.43;5.93;;;;;;;15.56;100.00;100631.91;21012071;28;20310;-58
2021/09/25 20:13:58;;;;;;;8.43;7.73;;;;;;;15.48;100.00;100643.22;21026044;28;20234;-60
2021/09/25 20:24:02;;;;;;;8.83;8.10;;;;;;;15.43;100.00;100651.69;21068652;28;20222;-59
2021/09/25 20:34:05;;;;;;;9.87;8.97;;;;;;;15.43;100.00;100667.81;21068750;28;20857;-58
2021/09/25 20:44:12;;;;;;;10.60;9.47;;;;;;;15.43;100.00;100677.72;21075471;28;20234;-59
2021/09/25 20:54:15;;;;;;;9.03;8.33;;;;;;;15.43;100.00;100683.09;21050686;28;20229;-58
2021/09/25 21:04:19;;;;;;;10.27;9.37;;;;;;;15.25;100.00;100684.53;21057419;28;20230;-58
2021/09/25 21:14:22;;;;;;;10.60;9.80;;;;;;;15.24;100.00;100705.16;21048276;28;20243;-60
2021/09/25 21:24:29;;;;;;;9.27;8.33;;;;;;;15.30;100.00;100714.59;21051597;28;20229;-57
2021/09/25 21:34:32;;;;;;;8.90;8.20;;;;;;;15.34;100.00;100722.31;21049230;28;20721;-67
2021/09/25 21:44:36;;;;;;;9.00;8.30;;;;;;;15.38;100.00;100729.16;21067060;28;20248;-61
2021/09/25 22:02:38;;;;;;;7.60;7.00;;;;;;;15.42;100.00;100730.66;20963942;27;20306;-64
2021/09/25 22:12:41;;;;;;;6.50;6.00;;;;;;;15.43;100.00;100747.66;20877426;28;20520;-63
2021/09/25 22:22:46;;;;;;;7.93;7.17;;;;;;;15.41;100.00;100750.44;20879723;28;20345;-64
2021/09/25 22:32:51;;;;;;;8.13;7.43;;;;;;;15.45;100.00;100767.22;20888049;28;20239;-63
2021/09/25 22:42:59;;;;;;;8.50;7.87;;;;;;;15.42;100.00;100756.69;20890559;28;20227;-64
2021/09/25 22:53:02;;;;;;;10.43;9.50;;;;;;;15.42;100.00;100773.69;20889669;28;20585;-63
2021/09/25 23:03:06;;;;;;;8.67;7.97;;;;;;;15.40;100.00;100770.25;20888490;28;20266;-64
2021/09/25 23:13:09;;;;;;;9.80;9.00;;;;;;;15.34;100.00;100785.97;20837868;28;20224;-64
2021/09/25 23:23:13;;;;;;;10.63;9.73;;;;;;;15.31;100.00;100797.00;20832392;28;20270;-63
2021/09/25 23:33:15;;;;;;;10.57;9.70;;;;;;;15.31;100.00;100810.44;20831468;28;20236;-63
2021/09/25 23:43:19;;;;;;;10.00;9.10;;;;;;;15.32;100.00;100815.72;20829759;28;20297;-63
2021/09/25 23:53:21;;;;;;;9.00;8.30;;;;;;;15.25;100.00;100822.50;20830279;28;20773;-63
